createdAt,value
2022-07-30T00:00:24.833Z,15.2
2022-07-30T00:01:17.246Z,15.8
2022-07-30T00:02:17.281Z,15.3
2022-07-30T00:03:17.169Z,16.2
2022-07-30T00:04:17.177Z,14.8
2022-07-30T00:05:17.167Z,15.3
2022-07-30T00:06:17.113Z,15.5
2022-07-30T00:07:17.217Z,14.8
2022-07-30T00:08:17.115Z,14.5
2022-07-30T00:09:17.103Z,17.3
2022-07-30T00:10:17.217Z,16.3
2022-07-30T00:11:17.314Z,15.1
2022-07-30T00:12:17.106Z,16.4
2022-07-30T00:13:17.115Z,16
2022-07-30T00:14:17.311Z,16.4
2022-07-30T00:15:17.158Z,14.8
2022-07-30T00:16:17.187Z,14.8
2022-07-30T00:17:17.132Z,14.7
2022-07-30T00:18:17.100Z,14.8
2022-07-30T00:19:17.234Z,14.6
2022-07-30T00:20:17.100Z,14.9
2022-07-30T00:21:33.872Z,14.8
2022-07-30T00:22:17.105Z,15
2022-07-30T00:23:17.124Z,14.3
2022-07-30T00:24:17.147Z,15.8
2022-07-30T00:25:17.099Z,17.8
2022-07-30T00:26:17.202Z,14.9
2022-07-30T00:27:17.108Z,16
2022-07-30T00:28:17.099Z,16.2
2022-07-30T00:29:17.132Z,15
2022-07-30T00:30:17.110Z,17.2
2022-07-30T00:31:17.216Z,16.5
2022-07-30T00:32:17.103Z,13.5
2022-07-30T00:33:17.479Z,15.7
2022-07-30T00:34:17.108Z,15.4
2022-07-30T00:35:17.096Z,16.3
2022-07-30T00:36:17.124Z,15
2022-07-30T00:37:17.099Z,15.7
2022-07-30T00:38:17.100Z,16.1
2022-07-30T00:39:17.121Z,15.2
2022-07-30T00:40:17.100Z,14.7
2022-07-30T00:41:17.116Z,15.1
2022-07-30T00:42:17.105Z,14.9
2022-07-30T00:43:17.103Z,16.2
2022-07-30T00:44:17.110Z,15.7
2022-07-30T00:45:17.108Z,14.3
2022-07-30T00:46:17.210Z,15.6
2022-07-30T00:47:17.107Z,14.9
2022-07-30T00:48:17.108Z,15.6
2022-07-30T00:49:17.301Z,15.3
2022-07-30T00:50:17.175Z,18.1
2022-07-30T00:51:17.125Z,14.1
2022-07-30T00:52:17.093Z,16.1
2022-07-30T00:53:17.089Z,14.8
2022-07-30T00:54:17.225Z,14.9
2022-07-30T00:55:17.113Z,14.3
2022-07-30T00:56:17.084Z,14.4
2022-07-30T00:57:17.227Z,17.5
2022-07-30T00:58:17.224Z,15.4
2022-07-30T00:59:17.226Z,15.2
2022-07-30T01:00:17.090Z,14.4
2022-07-30T01:01:17.239Z,16.7
2022-07-30T01:02:17.133Z,15.2
2022-07-30T01:03:17.076Z,15.2
2022-07-30T01:04:17.112Z,15.9
2022-07-30T01:05:17.109Z,14.5
2022-07-30T01:06:17.115Z,14.8
2022-07-30T01:07:17.116Z,16.6
2022-07-30T01:08:17.115Z,14.5
2022-07-30T01:09:17.109Z,15.6
2022-07-30T01:10:17.120Z,15
2022-07-30T01:11:18.001Z,14.5
2022-07-30T01:12:17.109Z,15.3
2022-07-30T01:13:17.098Z,15.4
2022-07-30T01:14:17.096Z,15.9
2022-07-30T01:15:17.093Z,16.4
2022-07-30T01:16:17.157Z,14.9
2022-07-30T01:17:17.114Z,15.4
2022-07-30T01:18:17.089Z,15.9
2022-07-30T01:19:17.094Z,15.1
2022-07-30T01:20:17.113Z,17
2022-07-30T01:21:17.159Z,16.6
2022-07-30T01:22:17.114Z,16
2022-07-30T01:23:17.118Z,15
2022-07-30T01:24:17.120Z,15.2
2022-07-30T01:25:17.105Z,15.8
2022-07-30T01:26:17.122Z,15.1
2022-07-30T01:27:19.881Z,17.2
2022-07-30T01:28:18.622Z,18.8
2022-07-30T01:29:17.122Z,15.6
2022-07-30T01:30:17.130Z,15.2
2022-07-30T01:31:17.191Z,17.6
2022-07-30T01:32:17.120Z,15.4
2022-07-30T01:33:17.117Z,16
2022-07-30T01:34:17.111Z,16.4
2022-07-30T01:35:17.100Z,17.1
2022-07-30T01:36:17.102Z,15.2
2022-07-30T01:37:17.097Z,14.8
2022-07-30T01:38:17.095Z,15.8
2022-07-30T01:39:17.095Z,15.9
2022-07-30T01:40:17.108Z,17.8
2022-07-30T01:41:17.089Z,14.9
2022-07-30T01:42:17.097Z,16.2
2022-07-30T01:43:17.112Z,16.8
2022-07-30T01:44:17.111Z,15.4
2022-07-30T01:45:17.110Z,16.3
2022-07-30T01:46:17.224Z,14.6
2022-07-30T01:47:17.100Z,15.5
2022-07-30T01:48:17.101Z,15.5
2022-07-30T01:49:17.195Z,16.3
2022-07-30T01:50:17.113Z,17.2
2022-07-30T01:51:17.117Z,16.5
2022-07-30T01:52:17.112Z,16.8
2022-07-30T01:53:17.103Z,15.4
2022-07-30T01:54:17.115Z,15.5
2022-07-30T01:55:17.596Z,17.1
2022-07-30T01:56:17.129Z,15.7
2022-07-30T01:57:17.113Z,15.9
2022-07-30T01:58:17.100Z,16.4
2022-07-30T01:59:17.101Z,17.8
2022-07-30T02:00:17.109Z,18.2
2022-07-30T02:01:17.184Z,17.1
2022-07-30T02:02:18.046Z,17.2
2022-07-30T02:03:17.176Z,16.4
2022-07-30T02:04:17.102Z,16.2
2022-07-30T02:05:17.117Z,16
2022-07-30T02:06:17.110Z,18.2
2022-07-30T02:07:17.115Z,18
2022-07-30T02:08:17.103Z,16.9
2022-07-30T02:09:17.118Z,17.7
2022-07-30T02:10:17.107Z,14.9
2022-07-30T02:11:17.109Z,16.3
2022-07-30T02:12:17.104Z,15.1
2022-07-30T02:13:17.106Z,15.3
2022-07-30T02:14:17.105Z,19.6
2022-07-30T02:15:17.098Z,17.1
2022-07-30T02:16:17.168Z,16.3
2022-07-30T02:17:18.728Z,18.6
2022-07-30T02:18:17.107Z,18.6
2022-07-30T02:19:17.103Z,18.1
2022-07-30T02:20:17.100Z,18.2
2022-07-30T02:21:17.107Z,19.8
2022-07-30T02:22:17.101Z,18.6
2022-07-30T02:23:17.110Z,17.8
2022-07-30T02:24:17.106Z,18.7
2022-07-30T02:25:17.104Z,17.2
2022-07-30T02:26:17.111Z,18.1
2022-07-30T02:27:17.120Z,16.9
2022-07-30T02:28:17.101Z,19.2
2022-07-30T02:29:17.116Z,17
2022-07-30T02:30:17.098Z,18
2022-07-30T02:31:17.963Z,17.7
2022-07-30T02:32:17.113Z,16
2022-07-30T02:33:17.114Z,17.2
2022-07-30T02:34:17.108Z,15.8
2022-07-30T02:35:17.107Z,15.9
2022-07-30T02:36:17.119Z,17.3
2022-07-30T02:37:17.108Z,16.2
2022-07-30T02:38:17.111Z,17.8
2022-07-30T02:39:17.112Z,18.7
2022-07-30T02:40:17.109Z,18.3
2022-07-30T02:41:17.113Z,16.9
2022-07-30T02:42:17.105Z,17.8
2022-07-30T02:43:17.111Z,18
2022-07-30T02:44:17.103Z,17.2
2022-07-30T02:45:17.105Z,19.5
2022-07-30T02:46:17.205Z,17.8
2022-07-30T02:47:17.112Z,18
2022-07-30T02:48:34.686Z,17.7
2022-07-30T02:49:17.163Z,17
2022-07-30T02:50:17.103Z,17.3
2022-07-30T02:51:17.109Z,16.9
2022-07-30T02:52:17.103Z,18.8
2022-07-30T02:53:17.107Z,16.2
2022-07-30T02:54:17.098Z,16.4
2022-07-30T02:55:17.105Z,16
2022-07-30T02:56:17.126Z,16.4
2022-07-30T02:57:17.115Z,17.4
2022-07-30T02:58:17.115Z,18.9
2022-07-30T02:59:17.115Z,16.4
2022-07-30T03:00:17.113Z,18.8
2022-07-30T03:01:17.358Z,17.1
2022-07-30T03:02:17.166Z,17.9
2022-07-30T03:03:17.099Z,17.2
2022-07-30T03:04:17.100Z,19.7
2022-07-30T03:05:17.106Z,16.6
2022-07-30T03:06:17.115Z,17.3
2022-07-30T03:07:17.120Z,17.4
2022-07-30T03:08:19.263Z,18
2022-07-30T03:09:17.109Z,17.8
2022-07-30T03:10:17.095Z,17.5
2022-07-30T03:11:17.111Z,16.9
2022-07-30T03:12:17.105Z,19.3
2022-07-30T03:13:17.149Z,17.5
2022-07-30T03:14:17.105Z,16.4
2022-07-30T03:15:17.114Z,17.1
2022-07-30T03:16:17.199Z,18.3
2022-07-30T03:17:17.128Z,17.4
2022-07-30T03:18:17.110Z,19.7
2022-07-30T03:19:17.123Z,18.3
2022-07-30T03:20:17.105Z,17.6
2022-07-30T03:21:17.108Z,18.2
2022-07-30T03:22:17.094Z,17.5
2022-07-30T03:23:17.096Z,17.3
2022-07-30T03:24:17.091Z,18.5
2022-07-30T03:25:17.086Z,19.6
2022-07-30T03:26:17.099Z,19
2022-07-30T03:27:17.101Z,18.3
2022-07-30T03:28:17.098Z,18.6
2022-07-30T03:29:17.100Z,18.5
2022-07-30T03:30:17.097Z,18.2
2022-07-30T03:31:17.189Z,20.7
2022-07-30T03:32:17.105Z,18
2022-07-30T03:33:17.093Z,17.8
2022-07-30T03:34:17.097Z,18.2
2022-07-30T03:35:17.617Z,19.6
2022-07-30T03:36:17.117Z,18.4
2022-07-30T03:37:17.110Z,18.3
2022-07-30T03:38:17.103Z,18.3
2022-07-30T03:39:17.129Z,17
2022-07-30T03:40:17.113Z,19.2
2022-07-30T03:41:17.119Z,19.4
2022-07-30T03:42:17.098Z,17.8
2022-07-30T03:43:32.597Z,20
2022-07-30T03:44:17.097Z,19.2
2022-07-30T03:45:17.095Z,18.2
2022-07-30T03:46:17.156Z,18.7
2022-07-30T03:47:17.106Z,18.1
2022-07-30T03:48:17.086Z,18.6
2022-07-30T03:49:17.129Z,18.5
2022-07-30T03:50:17.111Z,19.8
2022-07-30T03:51:17.114Z,18.5
2022-07-30T03:52:17.100Z,18.8
2022-07-30T03:53:17.105Z,19.2
2022-07-30T03:54:17.109Z,20.5
2022-07-30T03:55:17.131Z,18.3
2022-07-30T03:56:17.104Z,18.6
2022-07-30T03:57:19.384Z,19.2
2022-07-30T03:58:17.105Z,20.2
2022-07-30T03:59:17.103Z,19.9
2022-07-30T04:00:17.108Z,19.8
2022-07-30T04:01:17.170Z,20.1
2022-07-30T04:02:17.126Z,19.3
2022-07-30T04:03:17.131Z,20
2022-07-30T04:04:17.102Z,19.1
2022-07-30T04:05:17.105Z,20.7
2022-07-30T04:06:17.113Z,22.2
2022-07-30T04:07:17.102Z,19.3
2022-07-30T04:08:17.104Z,19.5
2022-07-30T04:09:17.102Z,19.8
2022-07-30T04:10:17.109Z,18.3
2022-07-30T04:11:17.118Z,21.3
2022-07-30T04:12:17.101Z,21.1
2022-07-30T04:13:17.096Z,19.7
2022-07-30T04:14:17.100Z,20.7
2022-07-30T04:16:37.886Z,20.6
2022-07-30T04:16:41.535Z,22.1
2022-07-30T04:17:17.139Z,19.9
2022-07-30T04:18:17.105Z,19.5
2022-07-30T04:19:17.095Z,19.4
2022-07-30T04:20:18.182Z,21.7
2022-07-30T04:21:17.483Z,19.8
2022-07-30T04:22:17.095Z,20.2
2022-07-30T04:23:17.096Z,21.6
2022-07-30T04:24:17.105Z,22.2
2022-07-30T04:25:18.541Z,21.3
2022-07-30T04:26:17.112Z,21.1
2022-07-30T04:27:17.096Z,20.9
2022-07-30T04:28:17.097Z,20.8
2022-07-30T04:29:20.231Z,20.9
2022-07-30T04:30:17.094Z,22.4
2022-07-30T04:31:17.189Z,22.4
2022-07-30T04:32:17.116Z,21.3
2022-07-30T04:33:17.114Z,21.4
2022-07-30T04:34:17.159Z,20
2022-07-30T04:35:49.965Z,20.7
2022-07-30T04:36:17.119Z,20.8
2022-07-30T04:37:17.103Z,21.5
2022-07-30T04:38:17.096Z,20.5
2022-07-30T04:39:17.094Z,20.5
2022-07-30T04:40:17.096Z,21.7
2022-07-30T04:41:17.127Z,20.1
2022-07-30T04:42:17.097Z,19.9
2022-07-30T04:43:17.102Z,21.8
2022-07-30T04:44:17.101Z,21.8
2022-07-30T04:45:17.096Z,21.2
2022-07-30T04:46:17.178Z,22
2022-07-30T04:47:17.114Z,22.6
2022-07-30T04:48:17.096Z,21.4
2022-07-30T04:49:17.220Z,21.4
2022-07-30T04:50:17.107Z,22.7
2022-07-30T04:51:17.109Z,22.1
2022-07-30T04:52:17.098Z,22.2
2022-07-30T04:53:17.101Z,23.5
2022-07-30T04:54:17.101Z,20.2
2022-07-30T04:55:17.098Z,21.4
2022-07-30T04:56:17.097Z,21.5
2022-07-30T04:57:17.092Z,22.6
2022-07-30T04:58:17.089Z,22.5
2022-07-30T04:59:17.091Z,21.2
2022-07-30T05:00:17.102Z,22
2022-07-30T05:01:17.189Z,20.5
2022-07-30T05:02:17.199Z,18.6
2022-07-30T05:03:17.101Z,22.3
2022-07-30T05:04:17.098Z,21.8
2022-07-30T05:05:17.179Z,18.2
2022-07-30T05:06:17.107Z,20.8
2022-07-30T05:07:17.101Z,21.5
2022-07-30T05:08:17.108Z,21.2
2022-07-30T05:09:17.111Z,21.2
2022-07-30T05:10:17.120Z,21.2
2022-07-30T05:11:17.112Z,21.7
2022-07-30T05:12:17.091Z,23.4
2022-07-30T05:13:17.100Z,21
2022-07-30T05:14:17.097Z,21.2
2022-07-30T05:15:17.109Z,23.2
2022-07-30T05:16:17.158Z,22.6
2022-07-30T05:17:17.107Z,23
2022-07-30T05:18:17.104Z,21.5
2022-07-30T05:19:17.112Z,20.6
2022-07-30T05:20:17.112Z,22.8
2022-07-30T05:21:17.138Z,21.9
2022-07-30T05:22:17.101Z,21.2
2022-07-30T05:23:17.101Z,21.4
2022-07-30T05:24:17.103Z,22.8
2022-07-30T05:25:17.111Z,22.2
2022-07-30T05:26:17.120Z,22
2022-07-30T05:27:17.123Z,21.1
2022-07-30T05:28:17.106Z,22.4
2022-07-30T05:29:19.996Z,21.9
2022-07-30T05:30:17.104Z,24.7
2022-07-30T05:31:17.141Z,23.1
2022-07-30T05:32:17.109Z,23.4
2022-07-30T05:33:17.096Z,23.1
2022-07-30T05:34:17.110Z,22.5
2022-07-30T05:35:17.105Z,26.1
2022-07-30T05:36:17.109Z,22.9
2022-07-30T05:37:17.101Z,22.8
2022-07-30T05:38:17.103Z,22.6
2022-07-30T05:39:17.110Z,23.8
2022-07-30T05:40:17.111Z,23.2
2022-07-30T05:41:30.627Z,24.1
2022-07-30T05:42:17.103Z,23.5
2022-07-30T05:43:17.099Z,24.4
2022-07-30T05:44:22.004Z,24.1
2022-07-30T05:45:17.098Z,25.9
2022-07-30T05:46:17.162Z,23.8
2022-07-30T05:47:17.120Z,24.8
2022-07-30T05:48:17.090Z,23.2
2022-07-30T05:49:17.138Z,25
2022-07-30T05:50:17.105Z,24.3
2022-07-30T05:51:17.126Z,24.3
2022-07-30T05:52:17.103Z,23.9
2022-07-30T05:53:17.108Z,24.2
2022-07-30T05:54:17.106Z,24.2
2022-07-30T05:55:17.128Z,24.5
2022-07-30T05:56:17.117Z,25.7
2022-07-30T05:57:17.100Z,28.8
2022-07-30T05:58:17.103Z,29.8
2022-07-30T05:59:17.106Z,30.1
2022-07-30T06:00:17.165Z,29
2022-07-30T06:01:17.173Z,30.8
2022-07-30T06:02:17.128Z,31
2022-07-30T06:03:17.096Z,32.7
2022-07-30T06:04:17.167Z,31.2
2022-07-30T06:05:17.121Z,33
2022-07-30T06:06:22.447Z,30.2
2022-07-30T06:07:17.106Z,35
2022-07-30T06:08:17.110Z,38
2022-07-30T06:09:17.119Z,33.6
2022-07-30T06:10:17.130Z,48.2
2022-07-30T06:11:17.114Z,45.1
2022-07-30T06:12:17.098Z,46
2022-07-30T06:13:17.101Z,37
2022-07-30T06:14:17.100Z,31.2
2022-07-30T06:15:20.549Z,38
2022-07-30T06:16:17.198Z,43.2
2022-07-30T06:17:17.109Z,39.9
2022-07-30T06:18:17.099Z,35.7
2022-07-30T06:19:19.697Z,29.7
2022-07-30T06:20:17.160Z,34.5
2022-07-30T06:21:17.129Z,37.3
2022-07-30T06:22:17.115Z,37.8
2022-07-30T06:23:17.138Z,37.1
2022-07-30T06:24:17.111Z,38.3
2022-07-30T06:25:18.682Z,37.3
2022-07-30T06:26:17.114Z,47.7
2022-07-30T06:27:17.103Z,38.5
2022-07-30T06:28:36.319Z,33.9
2022-07-30T06:29:17.098Z,45.5
2022-07-30T06:30:17.148Z,34.8
2022-07-30T06:31:17.182Z,36.7
2022-07-30T06:32:17.115Z,38.9
2022-07-30T06:33:17.108Z,31.2
2022-07-30T06:34:17.123Z,32.6
2022-07-30T06:35:17.118Z,32.3
2022-07-30T06:36:17.180Z,34.9
2022-07-30T06:37:17.113Z,30.4
2022-07-30T06:38:17.136Z,29.3
2022-07-30T06:39:53.904Z,30.3
2022-07-30T06:40:17.110Z,35.9
2022-07-30T06:41:17.115Z,29.1
2022-07-30T06:42:17.106Z,33.3
2022-07-30T06:43:17.112Z,30
2022-07-30T06:44:17.098Z,25.4
2022-07-30T06:45:17.107Z,27.7
2022-07-30T06:46:17.137Z,25.3
2022-07-30T06:47:17.131Z,25.7
2022-07-30T06:48:17.103Z,27.7
2022-07-30T06:49:17.267Z,24.7
2022-07-30T06:50:17.106Z,26.1
2022-07-30T06:51:17.138Z,28.5
2022-07-30T06:52:18.829Z,25
2022-07-30T06:53:17.109Z,25
2022-07-30T06:54:17.123Z,24.8
2022-07-30T06:55:17.111Z,26.3
2022-07-30T06:56:17.129Z,25.7
2022-07-30T06:57:17.106Z,25.1
2022-07-30T06:58:17.127Z,24.7
2022-07-30T06:59:17.113Z,27.7
2022-07-30T07:00:17.115Z,27.7
2022-07-30T07:01:17.158Z,25.9
2022-07-30T07:02:17.122Z,22.6
2022-07-30T07:03:17.105Z,22.3
2022-07-30T07:04:17.192Z,22.7
2022-07-30T07:05:17.119Z,22.5
2022-07-30T07:06:17.114Z,23.5
2022-07-30T07:07:31.554Z,22.2
2022-07-30T07:08:17.098Z,22.9
2022-07-30T07:09:17.104Z,23.1
2022-07-30T07:10:17.139Z,23.1
2022-07-30T07:11:17.115Z,22.2
2022-07-30T07:12:17.099Z,21.5
2022-07-30T07:13:17.110Z,22.1
2022-07-30T07:14:17.097Z,19.8
2022-07-30T07:15:17.119Z,22.3
2022-07-30T07:16:17.109Z,21.7
2022-07-30T07:17:17.205Z,20.9
2022-07-30T07:18:17.103Z,21.5
2022-07-30T07:19:59.590Z,20.3
2022-07-30T07:20:17.115Z,19.2
2022-07-30T07:21:17.124Z,20.6
2022-07-30T07:22:17.113Z,19.1
2022-07-30T07:23:19.741Z,20.7
2022-07-30T07:24:17.099Z,20.9
2022-07-30T07:25:17.105Z,19.4
2022-07-30T07:26:17.106Z,20.7
2022-07-30T07:27:17.100Z,19.6
2022-07-30T07:28:17.101Z,19.3
2022-07-30T07:29:17.093Z,19.8
2022-07-30T07:30:17.093Z,19.8
2022-07-30T07:32:02.523Z,20
2022-07-30T07:32:17.105Z,19.1
2022-07-30T07:33:17.091Z,19.6
2022-07-30T07:34:17.308Z,17.5
2022-07-30T07:35:17.095Z,17.5
2022-07-30T07:36:17.106Z,20.5
2022-07-30T07:37:17.112Z,20.1
2022-07-30T07:38:17.107Z,19.5
2022-07-30T07:39:17.103Z,20.7
2022-07-30T07:40:17.108Z,20.7
2022-07-30T07:41:17.114Z,22.2
2022-07-30T07:42:17.095Z,20.7
2022-07-30T07:43:17.096Z,20.2
2022-07-30T07:44:17.100Z,21.3
2022-07-30T07:45:17.098Z,19.9
2022-07-30T07:46:17.473Z,21.5
2022-07-30T07:47:17.173Z,20.3
2022-07-30T07:48:17.096Z,22.5
2022-07-30T07:49:17.225Z,22.6
2022-07-30T07:50:17.122Z,22.6
2022-07-30T07:51:17.126Z,22.4
2022-07-30T07:52:17.112Z,23.1
2022-07-30T07:53:17.108Z,21.7
2022-07-30T07:54:21.994Z,22.7
2022-07-30T07:55:17.164Z,22.3
2022-07-30T07:56:17.275Z,21.2
2022-07-30T07:57:17.104Z,20.7
2022-07-30T07:58:25.411Z,20.1
2022-07-30T07:59:17.250Z,21.3
2022-07-30T08:00:17.115Z,21.3
2022-07-30T08:01:17.200Z,21.7
2022-07-30T08:02:17.215Z,20.6
2022-07-30T08:03:17.108Z,22.2
2022-07-30T08:04:17.109Z,21.2
2022-07-30T08:05:17.121Z,19.3
2022-07-30T08:06:17.105Z,22
2022-07-30T08:07:17.096Z,19.8
2022-07-30T08:08:17.093Z,21.5
2022-07-30T08:09:17.090Z,19.8
2022-07-30T08:10:17.104Z,19.8
2022-07-30T08:11:17.118Z,21.9
2022-07-30T08:12:17.101Z,21.5
2022-07-30T08:13:49.038Z,21
2022-07-30T08:14:17.098Z,20.3
2022-07-30T08:15:21.544Z,20.3
2022-07-30T08:16:17.219Z,20.8
2022-07-30T08:17:17.948Z,21.3
2022-07-30T08:18:17.111Z,21.1
2022-07-30T08:19:17.096Z,21.4
2022-07-30T08:20:17.104Z,21.4
2022-07-30T08:21:17.119Z,21.7
2022-07-30T08:22:17.094Z,19.9
2022-07-30T08:23:17.105Z,21.6
2022-07-30T08:24:17.093Z,21.4
2022-07-30T08:25:22.180Z,20.7
2022-07-30T08:26:17.110Z,20.8
2022-07-30T08:27:17.100Z,23.6
2022-07-30T08:28:35.283Z,22.5
2022-07-30T08:29:17.420Z,21.1
2022-07-30T08:30:17.108Z,21.1
2022-07-30T08:31:17.113Z,21
2022-07-30T08:32:17.115Z,22.4
2022-07-30T08:33:17.101Z,23.5
2022-07-30T08:34:17.118Z,20.8
2022-07-30T08:35:17.097Z,20.8
2022-07-30T08:36:17.106Z,22.5
2022-07-30T08:37:17.095Z,21.7
2022-07-30T08:38:17.106Z,19.9
2022-07-30T08:39:17.101Z,19.5
2022-07-30T08:40:17.100Z,19.5
2022-07-30T08:41:17.114Z,21
2022-07-30T08:42:17.096Z,21.8
2022-07-30T08:43:17.097Z,20.5
2022-07-30T08:44:17.095Z,21.2
2022-07-30T08:45:17.102Z,21.2
2022-07-30T08:46:17.105Z,21.7
2022-07-30T08:47:17.124Z,20.1
2022-07-30T08:48:17.112Z,21.3
2022-07-30T08:49:17.135Z,20.7
2022-07-30T08:50:17.201Z,20.7
2022-07-30T08:51:17.109Z,19.6
2022-07-30T08:52:17.110Z,19.6
2022-07-30T08:53:17.105Z,21.4
2022-07-30T08:54:17.106Z,20.9
2022-07-30T08:55:17.094Z,20.9
2022-07-30T08:56:17.118Z,19
2022-07-30T08:57:17.167Z,19.6
2022-07-30T08:58:18.203Z,19.5
2022-07-30T08:59:17.101Z,20.4
2022-07-30T09:00:17.102Z,20.4
2022-07-30T09:01:17.106Z,20.1
2022-07-30T09:02:17.108Z,20.7
2022-07-30T09:03:17.087Z,46.5
2022-07-30T09:04:17.090Z,42.1
2022-07-30T09:05:17.095Z,42.1
2022-07-30T09:06:17.104Z,20.9
2022-07-30T09:07:17.095Z,46.7
2022-07-30T09:08:18.696Z,32.6
2022-07-30T09:09:17.096Z,21.5
2022-07-30T09:10:17.118Z,21.5
2022-07-30T09:11:17.106Z,18.5
2022-07-30T09:12:17.107Z,19.3
2022-07-30T09:13:17.105Z,20.3
2022-07-30T09:14:17.107Z,18.8
2022-07-30T09:15:17.104Z,18.8
2022-07-30T09:17:17.119Z,18.9
2022-07-30T09:18:17.113Z,18.8
2022-07-30T09:19:17.112Z,18.4
2022-07-30T09:20:17.116Z,18.4
2022-07-30T09:21:17.109Z,18.3
2022-07-30T09:22:17.095Z,16.8
2022-07-30T09:23:17.101Z,16.4
2022-07-30T09:24:17.112Z,17.8
2022-07-30T09:25:17.117Z,17.8
2022-07-30T09:26:17.129Z,17.6
2022-07-30T09:27:17.106Z,17.8
2022-07-30T09:28:17.228Z,18.6
2022-07-30T09:29:17.126Z,18.3
2022-07-30T09:30:17.300Z,18.3
2022-07-30T09:31:17.259Z,17.3
2022-07-30T09:32:17.114Z,18.9
2022-07-30T09:33:17.102Z,16.3
2022-07-30T09:34:17.098Z,18.1
2022-07-30T09:35:17.096Z,18.1
2022-07-30T09:36:17.142Z,17
2022-07-30T09:37:17.145Z,18.7
2022-07-30T09:38:17.134Z,18.1
2022-07-30T09:39:17.113Z,18.4
2022-07-30T09:40:17.186Z,18.4
2022-07-30T09:41:29.375Z,19.6
2022-07-30T09:42:17.100Z,17.5
2022-07-30T09:43:17.105Z,17.7
2022-07-30T09:44:17.108Z,17.9
2022-07-30T09:45:17.114Z,17.9
2022-07-30T09:46:17.111Z,17.5
2022-07-30T09:47:17.124Z,17.3
2022-07-30T09:48:17.120Z,17.7
2022-07-30T09:49:17.354Z,16.8
2022-07-30T09:50:29.299Z,16.8
2022-07-30T09:51:19.302Z,18.7
2022-07-30T09:52:17.113Z,17.4
2022-07-30T09:53:17.115Z,18.6
2022-07-30T09:54:17.113Z,18.7
2022-07-30T09:55:17.106Z,18.7
2022-07-30T09:56:17.120Z,18.3
2022-07-30T09:58:27.071Z,17.9
2022-07-30T09:59:18.540Z,18.1
2022-07-30T10:00:17.123Z,18.1
2022-07-30T10:01:17.129Z,18.2
2022-07-30T10:02:17.127Z,18.1
2022-07-30T10:03:21.811Z,18.1
2022-07-30T10:04:17.106Z,17.5
2022-07-30T10:05:17.119Z,17.5
2022-07-30T10:06:17.131Z,17.7
2022-07-30T10:07:17.104Z,17.5
2022-07-30T10:08:18.992Z,18.9
2022-07-30T10:09:17.099Z,18
2022-07-30T10:10:17.189Z,18
2022-07-30T10:11:17.108Z,16.6
2022-07-30T10:12:17.098Z,17.1
2022-07-30T10:13:19.641Z,16.9
2022-07-30T10:14:17.098Z,16.5
2022-07-30T10:15:17.097Z,16.5
2022-07-30T10:16:17.163Z,15.7
2022-07-30T10:17:17.456Z,15.4
2022-07-30T10:18:18.152Z,16.6
2022-07-30T10:19:18.227Z,16.9
2022-07-30T10:20:17.111Z,16.9
2022-07-30T10:21:17.114Z,16.9
2022-07-30T10:22:17.283Z,16.5
2022-07-30T10:23:18.402Z,15.6
2022-07-30T10:24:17.097Z,16.4
2022-07-30T10:25:17.100Z,16.4
2022-07-30T10:26:17.420Z,17
2022-07-30T10:27:17.098Z,16.4
2022-07-30T10:28:17.098Z,15.5
2022-07-30T10:29:17.104Z,17.1
2022-07-30T10:30:17.118Z,17.1
2022-07-30T10:31:49.490Z,18.1
2022-07-30T10:32:17.122Z,16.8
2022-07-30T10:33:34.656Z,15.9
2022-07-30T10:34:17.102Z,15.6
2022-07-30T10:35:34.801Z,15.6
2022-07-30T10:36:17.104Z,16.4
2022-07-30T10:37:17.096Z,16.2
2022-07-30T10:38:17.106Z,16.4
2022-07-30T10:39:17.098Z,15.7
2022-07-30T10:40:17.100Z,15.7
2022-07-30T10:41:17.112Z,14.6
2022-07-30T10:42:17.096Z,14.5
2022-07-30T10:43:17.108Z,13.8
2022-07-30T10:44:17.107Z,12.9
2022-07-30T10:45:17.892Z,12.9
2022-07-30T10:46:19.981Z,13.1
2022-07-30T10:47:17.123Z,12.6
2022-07-30T10:48:17.117Z,12.4
2022-07-30T10:49:19.085Z,13
2022-07-30T10:50:17.104Z,13
2022-07-30T10:51:18.588Z,13.8
2022-07-30T10:52:17.109Z,12.1
2022-07-30T10:53:17.113Z,12.7
2022-07-30T10:54:17.109Z,13.6
2022-07-30T10:55:17.128Z,13.6
2022-07-30T10:56:17.119Z,11.8
2022-07-30T10:57:22.819Z,11.4
2022-07-30T10:58:18.027Z,11.8
2022-07-30T10:59:17.101Z,10.9
2022-07-30T11:00:17.863Z,10.9
2022-07-30T11:01:18.378Z,11.3
2022-07-30T11:02:17.729Z,11.3
2022-07-30T11:03:17.100Z,11.3
2022-07-30T11:04:17.104Z,10.6
2022-07-30T11:05:17.132Z,10.4
2022-07-30T11:06:24.568Z,9.4
2022-07-30T11:07:17.474Z,9.9
2022-07-30T11:08:17.099Z,9.3
2022-07-30T11:09:17.116Z,8.1
2022-07-30T11:10:17.111Z,9.5
2022-07-30T11:11:20.147Z,8.8
2022-07-30T11:12:17.188Z,9.4
2022-07-30T11:13:17.098Z,9
2022-07-30T11:14:17.100Z,7.9
2022-07-30T11:15:19.001Z,7.9
2022-07-30T11:16:17.104Z,9
2022-07-30T11:17:17.109Z,8.9
2022-07-30T11:18:17.137Z,8.6
2022-07-30T11:19:53.181Z,8.4
2022-07-30T11:20:17.103Z,8.4
2022-07-30T11:21:17.120Z,8.1
2022-07-30T11:22:17.095Z,8.1
2022-07-30T11:23:17.109Z,8.1
2022-07-30T11:24:17.110Z,7.9
2022-07-30T11:25:17.097Z,7.9
2022-07-30T11:26:17.104Z,7.9
2022-07-30T11:27:17.106Z,7.8
2022-07-30T11:28:17.090Z,9.1
2022-07-30T11:29:17.092Z,8.7
2022-07-30T11:30:17.973Z,8.7
2022-07-30T11:31:17.109Z,9.4
2022-07-30T11:32:17.109Z,10.1
2022-07-30T11:33:18.668Z,9.7
2022-07-30T11:34:17.097Z,10.3
2022-07-30T11:35:17.104Z,10.3
2022-07-30T11:36:17.112Z,9.9
2022-07-30T11:37:21.681Z,10.4
2022-07-30T11:38:18.657Z,10.4
2022-07-30T11:39:17.109Z,9.5
2022-07-30T11:40:17.096Z,10.7
2022-07-30T11:41:17.103Z,10.8
2022-07-30T11:42:17.094Z,10.4
2022-07-30T11:43:17.093Z,10.2
2022-07-30T11:44:17.089Z,9.6
2022-07-30T11:45:17.102Z,9.6
2022-07-30T11:46:17.102Z,10
2022-07-30T11:47:17.116Z,10.7
2022-07-30T11:48:17.107Z,10.7
2022-07-30T11:49:17.202Z,10.6
2022-07-30T11:50:17.093Z,10.6
2022-07-30T11:51:17.113Z,11.1
2022-07-30T11:52:17.104Z,11.2
2022-07-30T11:53:17.095Z,10.8
2022-07-30T11:54:17.097Z,12.1
2022-07-30T11:55:17.098Z,11.8
2022-07-30T11:56:17.107Z,11.4
2022-07-30T11:57:17.107Z,12.6
2022-07-30T11:58:17.114Z,11.6
2022-07-30T11:59:17.095Z,12.4
2022-07-30T12:00:17.108Z,12.4
2022-07-30T12:01:17.114Z,12
2022-07-30T12:02:17.112Z,12.6
2022-07-30T12:03:17.106Z,12.6
2022-07-30T12:04:17.119Z,11.9
2022-07-30T12:05:17.097Z,11.9
2022-07-30T12:06:17.099Z,12.6
2022-07-30T12:07:17.093Z,11.6
2022-07-30T12:08:35.310Z,12.1
2022-07-30T12:09:17.087Z,12.4
2022-07-30T12:10:17.131Z,13.4
2022-07-30T12:11:17.115Z,13
2022-07-30T12:12:17.097Z,14.1
2022-07-30T12:13:17.095Z,14.1
2022-07-30T12:14:17.106Z,14.7
2022-07-30T12:15:17.114Z,15
2022-07-30T12:16:17.125Z,15
2022-07-30T12:17:17.111Z,15.6
2022-07-30T12:18:26.236Z,15.3
2022-07-30T12:19:17.098Z,15.5
2022-07-30T12:20:17.114Z,15.6
2022-07-30T12:21:17.137Z,15.5
2022-07-30T12:22:17.108Z,15.4
2022-07-30T12:23:21.714Z,16.8
2022-07-30T12:24:17.126Z,15.8
2022-07-30T12:25:17.114Z,17
2022-07-30T12:26:17.106Z,14.8
2022-07-30T12:27:17.094Z,16
2022-07-30T12:28:17.103Z,16.9
2022-07-30T12:29:17.102Z,16.3
2022-07-30T12:30:17.097Z,16.9
2022-07-30T12:31:17.111Z,16.7
2022-07-30T12:32:17.109Z,17.1
2022-07-30T12:33:17.092Z,17.5
2022-07-30T12:34:17.095Z,17.8
2022-07-30T12:35:17.102Z,17.7
2022-07-30T12:36:17.122Z,18.3
2022-07-30T12:37:17.092Z,18.2
2022-07-30T12:38:17.097Z,18.5
2022-07-30T12:39:17.090Z,19.7
2022-07-30T12:40:17.113Z,20.2
2022-07-30T12:41:17.108Z,19.7
2022-07-30T12:42:17.094Z,21.5
2022-07-30T12:43:17.089Z,20.9
2022-07-30T12:44:17.106Z,22.4
2022-07-30T12:45:17.093Z,23.2
2022-07-30T12:46:17.096Z,25.1
2022-07-30T12:47:17.129Z,24.6
2022-07-30T12:48:17.098Z,24.4
2022-07-30T12:49:22.259Z,23.8
2022-07-30T12:50:17.105Z,23.2
2022-07-30T12:51:17.152Z,22.5
2022-07-30T12:52:18.629Z,24
2022-07-30T12:53:17.112Z,24.4
2022-07-30T12:54:17.107Z,23.6
2022-07-30T12:55:17.102Z,25.1
2022-07-30T12:56:17.103Z,24.8
2022-07-30T12:57:17.110Z,24.6
2022-07-30T12:58:17.097Z,25.1
2022-07-30T12:59:17.088Z,23.9
2022-07-30T13:00:17.112Z,24.9
2022-07-30T13:01:17.214Z,24.8
2022-07-30T13:02:17.098Z,25.9
2022-07-30T13:03:17.088Z,27
2022-07-30T13:04:17.095Z,25
2022-07-30T13:05:17.092Z,26.5
2022-07-30T13:06:17.105Z,26.1
2022-07-30T13:07:17.091Z,27.4
2022-07-30T13:08:17.101Z,28.1
2022-07-30T13:09:17.102Z,29
2022-07-30T13:10:17.103Z,30.8
2022-07-30T13:11:17.120Z,29.5
2022-07-30T13:12:17.096Z,28.2
2022-07-30T13:13:17.098Z,28.3
2022-07-30T13:14:17.114Z,28.5
2022-07-30T13:15:17.098Z,29.3
2022-07-30T13:16:17.154Z,30.6
2022-07-30T13:17:17.115Z,29.1
2022-07-30T13:18:17.106Z,29.5
2022-07-30T13:19:17.109Z,32.4
2022-07-30T13:20:17.106Z,31.3
2022-07-30T13:21:17.121Z,32.4
2022-07-30T13:22:17.098Z,34.7
2022-07-30T13:23:17.098Z,33.2
2022-07-30T13:24:17.851Z,34.3
2022-07-30T13:25:17.107Z,29.4
2022-07-30T13:26:17.113Z,28.4